createdAt,value
2023-03-08T00:02:23.850Z,1.87
2023-03-08T00:04:55.738Z,2.70
2023-03-08T00:07:26.320Z,2.50
2023-03-08T00:09:57.262Z,2.30
2023-03-08T00:12:25.802Z,2.33
2023-03-08T00:14:57.370Z,2.50
2023-03-08T00:17:26.297Z,2.70
2023-03-08T00:19:54.485Z,2.27
2023-03-08T00:22:26.603Z,2.03
2023-03-08T00:24:55.890Z,1.80
2023-03-08T00:27:23.981Z,2.20
2023-03-08T00:29:53.824Z,2.30
2023-03-08T00:32:21.973Z,2.70
2023-03-08T00:34:53.845Z,2.07
2023-03-08T00:37:22.961Z,3.20
2023-03-08T00:39:56.231Z,3.03
2023-03-08T00:42:25.286Z,3.30
2023-03-08T00:44:53.777Z,2.70
2023-03-08T00:47:26.844Z,2.90
2023-03-08T00:49:55.667Z,2.50
2023-03-08T00:52:23.957Z,2.90
2023-03-08T00:54:52.092Z,2.77
2023-03-08T00:57:22.212Z,2.93
2023-03-08T00:59:50.850Z,3.27
2023-03-08T01:02:19.560Z,3.27
2023-03-08T01:04:49.845Z,3.00
2023-03-08T01:07:18.225Z,3.03
2023-03-08T01:09:46.541Z,2.77
2023-03-08T01:12:15.871Z,3.10
2023-03-08T01:14:45.361Z,2.63
2023-03-08T01:17:15.843Z,3.03
2023-03-08T01:19:44.104Z,2.93
2023-03-08T01:22:12.822Z,3.10
2023-03-08T01:24:46.470Z,2.70
2023-03-08T01:27:16.861Z,2.30
2023-03-08T01:29:46.856Z,2.17
2023-03-08T01:32:15.133Z,2.17
2023-03-08T01:34:43.269Z,2.30
2023-03-08T01:37:36.664Z,2.17
2023-03-08T01:40:06.555Z,2.17
2023-03-08T01:42:38.884Z,2.30
2023-03-08T01:45:47.880Z,2.20
2023-03-08T01:48:20.725Z,2.10
2023-03-08T01:50:59.856Z,2.10
2023-03-08T01:53:28.207Z,2.23
2023-03-08T01:55:57.873Z,2.10
2023-03-08T01:58:27.142Z,1.80
2023-03-08T02:00:57.927Z,1.73
2023-03-08T02:03:26.340Z,2.10
2023-03-08T02:05:54.616Z,2.00
2023-03-08T02:08:24.872Z,1.80
2023-03-08T02:10:54.880Z,1.77
2023-03-08T02:13:23.199Z,2.40
2023-03-08T02:15:55.470Z,1.80
2023-03-08T02:18:25.588Z,1.93
2023-03-08T02:20:53.819Z,1.87
2023-03-08T02:23:25.891Z,1.60
2023-03-08T02:25:55.909Z,1.83
2023-03-08T02:28:27.870Z,1.47
2023-03-08T02:30:56.401Z,1.57
2023-03-08T02:36:42.902Z,1.50
2023-03-08T02:39:14.041Z,1.80
2023-03-08T02:41:46.753Z,1.63
2023-03-08T02:44:14.978Z,1.50
2023-03-08T02:46:43.848Z,1.73
2023-03-08T02:49:12.893Z,1.70
2023-03-08T02:51:41.536Z,1.50
2023-03-08T02:54:16.830Z,1.50
2023-03-08T02:56:46.915Z,1.73
2023-03-08T02:59:15.986Z,1.43
2023-03-08T03:01:45.741Z,1.53
2023-03-08T03:04:15.927Z,1.40
2023-03-08T03:06:44.878Z,1.87
2023-03-08T03:09:17.077Z,1.63
2023-03-08T03:11:45.358Z,1.67
2023-03-08T03:14:14.418Z,1.63
2023-03-08T03:16:47.961Z,1.50
2023-03-08T03:19:16.862Z,1.60
2023-03-08T03:21:45.193Z,2.03
2023-03-08T03:24:14.430Z,2.40
2023-03-08T03:26:53.888Z,3.23
2023-03-08T03:29:27.349Z,2.90
2023-03-08T03:32:11.247Z,3.50
2023-03-08T03:34:39.883Z,3.57
2023-03-08T03:37:08.164Z,3.43
2023-03-08T03:39:39.114Z,3.53
2023-03-08T03:42:11.535Z,3.90
2023-03-08T03:44:45.942Z,3.77
2023-03-08T03:47:19.862Z,3.63
2023-03-08T03:49:49.625Z,3.73
2023-03-08T03:52:21.870Z,3.80
2023-03-08T03:55:00.097Z,3.87
2023-03-08T03:57:31.072Z,3.90
2023-03-08T04:00:03.476Z,4.47
2023-03-08T04:02:41.723Z,4.20
2023-03-08T04:05:14.597Z,4.67
2023-03-08T04:07:42.924Z,4.43
2023-03-08T04:10:12.271Z,4.70
2023-03-08T04:12:45.891Z,5.10
2023-03-08T04:15:14.056Z,4.93
2023-03-08T04:17:43.343Z,5.83
2023-03-08T04:20:14.499Z,6.33
2023-03-08T04:22:48.206Z,6.30
2023-03-08T04:25:22.912Z,6.07
2023-03-08T04:27:57.794Z,6.77
2023-03-08T04:30:27.420Z,6.80
2023-03-08T04:32:57.403Z,6.77
2023-03-08T04:35:32.989Z,7.17
2023-03-08T04:38:01.224Z,6.93
2023-03-08T04:40:31.101Z,7.63
2023-03-08T04:43:05.109Z,8.47
2023-03-08T04:45:38.767Z,8.03
2023-03-08T04:48:12.072Z,7.57
2023-03-08T04:50:41.896Z,8.80
2023-03-08T04:53:11.944Z,9.67
2023-03-08T04:55:44.010Z,8.53
2023-03-08T04:58:16.077Z,9.47
2023-03-08T05:00:44.905Z,9.60
2023-03-08T05:03:13.574Z,7.97
2023-03-08T05:05:46.882Z,8.80
2023-03-08T05:08:15.429Z,9.53
2023-03-08T05:10:48.870Z,10.83
2023-03-08T05:13:19.232Z,12.60
2023-03-08T05:15:50.523Z,10.93
2023-03-08T05:18:20.897Z,10.00
2023-03-08T05:20:55.645Z,10.33
2023-03-08T05:23:28.462Z,11.03
2023-03-08T05:26:00.384Z,11.50
2023-03-08T05:28:31.702Z,11.43
2023-03-08T05:31:05.831Z,11.47
2023-03-08T05:33:37.820Z,10.27
2023-03-08T05:36:09.182Z,10.53
2023-03-08T05:38:37.580Z,11.83
2023-03-08T05:41:13.203Z,10.20
2023-03-08T05:43:46.934Z,11.50
2023-03-08T05:46:19.736Z,9.50
2023-03-08T05:48:50.567Z,10.20
2023-03-08T05:51:21.060Z,10.60
2023-03-08T05:53:49.444Z,10.73
2023-03-08T05:56:21.126Z,10.17
2023-03-08T05:59:01.093Z,9.53
2023-03-08T06:01:31.133Z,10.20
2023-03-08T06:04:08.892Z,11.50
2023-03-08T06:06:40.441Z,9.87
2023-03-08T06:09:09.928Z,10.87
2023-03-08T06:11:41.102Z,8.57
2023-03-08T06:14:13.254Z,9.80
2023-03-08T06:16:43.514Z,7.97
2023-03-08T06:19:12.937Z,8.40
2023-03-08T06:21:41.754Z,7.67
2023-03-08T06:24:10.024Z,7.70
2023-03-08T06:26:38.426Z,8.43
2023-03-08T06:29:07.063Z,7.67
2023-03-08T06:31:36.619Z,8.43
2023-03-08T06:34:06.550Z,7.30
2023-03-08T06:36:35.085Z,8.17
2023-03-08T06:39:07.016Z,7.43
2023-03-08T06:41:35.343Z,8.03
2023-03-08T06:44:04.475Z,7.33
2023-03-08T06:46:35.457Z,7.83
2023-03-08T06:49:05.362Z,7.77
2023-03-08T06:51:35.532Z,7.37
2023-03-08T06:54:03.705Z,8.17
2023-03-08T06:56:32.094Z,8.40
2023-03-08T06:59:03.384Z,6.33
2023-03-08T07:01:31.519Z,7.80
2023-03-08T07:04:02.377Z,8.80
2023-03-08T07:06:32.466Z,10.90
2023-03-08T07:09:01.033Z,9.23
2023-03-08T07:11:31.026Z,8.20
2023-03-08T07:13:59.925Z,8.93
2023-03-08T07:16:30.218Z,9.83
2023-03-08T07:18:58.502Z,14.33
2023-03-08T07:21:26.668Z,11.60
2023-03-08T07:23:56.950Z,9.83
2023-03-08T07:26:27.417Z,7.40
2023-03-08T07:28:58.435Z,8.70
2023-03-08T07:31:27.951Z,7.43
2023-03-08T07:33:56.979Z,6.40
2023-03-08T07:36:25.095Z,7.13
2023-03-08T07:38:57.061Z,8.20
2023-03-08T07:41:25.228Z,6.23
2023-03-08T07:43:53.785Z,4.90
2023-03-08T07:46:25.993Z,5.33
2023-03-08T07:48:55.521Z,5.23
2023-03-08T07:51:24.174Z,5.40
2023-03-08T07:53:55.039Z,5.60
2023-03-08T07:56:24.709Z,6.03
2023-03-08T07:58:52.822Z,5.00
2023-03-08T08:01:21.865Z,5.80
2023-03-08T08:03:53.022Z,5.20
2023-03-08T08:06:22.371Z,5.10
2023-03-08T08:08:50.550Z,5.57
2023-03-08T08:11:21.017Z,4.43
2023-03-08T08:16:42.905Z,4.40
2023-03-08T08:19:12.425Z,4.40
2023-03-08T08:21:40.565Z,3.90
2023-03-08T08:24:09.814Z,3.80
2023-03-08T08:26:37.938Z,4.70
2023-03-08T08:29:09.498Z,3.97
2023-03-08T08:31:38.092Z,3.50
2023-03-08T08:34:06.502Z,4.47
2023-03-08T08:36:34.666Z,4.33
2023-03-08T08:39:03.073Z,4.37
2023-03-08T08:41:34.303Z,3.90
2023-03-08T08:44:02.942Z,3.47
2023-03-08T08:46:34.207Z,3.27
2023-03-08T08:49:06.828Z,3.90
2023-03-08T08:51:35.052Z,4.17
2023-03-08T08:54:03.410Z,4.90
2023-03-08T08:56:31.930Z,3.90
2023-03-08T08:59:03.129Z,3.30
2023-03-08T09:01:35.710Z,3.23
2023-03-08T09:04:04.241Z,2.10
2023-03-08T09:06:33.088Z,2.67
2023-03-08T09:09:01.387Z,3.90
2023-03-08T09:11:30.118Z,3.00
2023-03-08T09:14:02.952Z,2.50
2023-03-08T09:16:34.680Z,4.23
2023-03-08T09:19:05.964Z,2.60
2023-03-08T09:21:34.901Z,2.90
2023-03-08T09:24:06.614Z,2.10
2023-03-08T09:26:35.603Z,2.20
2023-03-08T09:29:08.150Z,2.33
2023-03-08T09:31:39.324Z,2.47
2023-03-08T09:34:09.310Z,2.50
2023-03-08T09:36:38.062Z,2.53
2023-03-08T09:39:08.950Z,2.93
2023-03-08T09:41:48.151Z,4.20
2023-03-08T09:44:52.702Z,2.93
2023-03-08T09:47:36.150Z,2.57
2023-03-08T09:50:18.323Z,3.37
2023-03-08T09:52:50.683Z,2.43
2023-03-08T09:55:30.225Z,2.77
2023-03-08T09:58:01.082Z,2.47
2023-03-08T10:00:33.037Z,2.70
2023-03-08T10:03:36.434Z,2.43
2023-03-08T10:06:14.641Z,1.83
2023-03-08T10:08:50.768Z,2.60
2023-03-08T10:11:25.185Z,2.00
2023-03-08T10:14:00.090Z,2.13
2023-03-08T10:16:30.832Z,1.80
2023-03-08T10:19:06.373Z,2.63
2023-03-08T10:21:38.812Z,3.00
2023-03-08T10:24:19.983Z,2.60
2023-03-08T10:26:48.105Z,3.10
2023-03-08T10:29:16.313Z,3.33
2023-03-08T10:31:48.876Z,2.90
2023-03-08T10:34:20.883Z,3.20
2023-03-08T10:36:53.028Z,2.67
2023-03-08T10:39:23.984Z,2.93
2023-03-08T10:41:55.097Z,2.97
2023-03-08T10:44:35.032Z,1.90
2023-03-08T10:47:16.825Z,2.47
2023-03-08T10:49:47.805Z,2.27
2023-03-08T10:52:25.557Z,3.40
2023-03-08T10:55:04.377Z,3.10
2023-03-08T10:57:33.709Z,2.40
2023-03-08T11:00:12.295Z,2.50
2023-03-08T11:02:42.018Z,2.83
2023-03-08T11:05:24.020Z,2.27
2023-03-08T11:07:53.549Z,2.30
2023-03-08T11:13:25.429Z,2.70
2023-03-08T11:16:03.441Z,2.53
2023-03-08T11:18:43.834Z,3.20
2023-03-08T11:21:20.529Z,2.90
2023-03-08T11:23:55.011Z,3.03
2023-03-08T11:26:32.026Z,2.77
2023-03-08T11:29:13.094Z,3.20
2023-03-08T11:31:49.033Z,2.80
2023-03-08T11:34:43.987Z,3.00
2023-03-08T11:37:21.747Z,3.67
2023-03-08T11:39:56.247Z,3.07
2023-03-08T11:42:33.691Z,3.03
2023-03-08T11:45:18.332Z,2.43
2023-03-08T11:48:13.863Z,2.70
2023-03-08T11:50:48.673Z,2.33
2023-03-08T11:53:26.984Z,3.50
2023-03-08T11:56:19.050Z,2.73
2023-03-08T11:58:51.242Z,3.30
2023-03-08T12:01:25.427Z,3.00
2023-03-08T12:03:57.316Z,2.83
2023-03-08T12:06:33.887Z,3.13
2023-03-08T12:09:08.854Z,3.47
2023-03-08T12:11:43.035Z,2.60
2023-03-08T12:14:17.694Z,2.80
2023-03-08T12:16:51.007Z,2.70
2023-03-08T12:19:28.084Z,2.80
2023-03-08T12:22:04.236Z,3.40
2023-03-08T12:24:51.400Z,2.93
2023-03-08T12:27:25.193Z,2.70
2023-03-08T12:30:04.578Z,8.87
2023-03-08T12:35:31.855Z,2.97
2023-03-08T12:38:03.131Z,2.77
2023-03-08T12:40:40.928Z,2.03
2023-03-08T12:43:13.073Z,2.33
2023-03-08T12:45:42.659Z,2.10
2023-03-08T12:48:19.853Z,2.53
2023-03-08T12:51:00.179Z,2.50
2023-03-08T12:53:37.053Z,3.07
2023-03-08T12:56:22.681Z,2.50
2023-03-08T12:58:54.104Z,2.60
2023-03-08T13:01:37.949Z,2.80
2023-03-08T13:04:44.712Z,2.77
2023-03-08T13:07:27.760Z,2.97
2023-03-08T13:10:05.072Z,2.50
2023-03-08T13:12:51.448Z,2.60
2023-03-08T13:15:24.094Z,2.70
2023-03-08T13:18:03.957Z,3.50
2023-03-08T13:20:52.724Z,3.40
2023-03-08T13:23:28.368Z,2.93
2023-03-08T13:26:14.446Z,3.60
2023-03-08T13:28:47.974Z,2.63
2023-03-08T13:31:19.154Z,2.90
2023-03-08T13:33:49.938Z,2.27
2023-03-08T13:36:21.586Z,3.13
2023-03-08T13:39:01.803Z,2.97
2023-03-08T13:41:36.215Z,3.10
2023-03-08T13:44:09.092Z,2.23
2023-03-08T13:46:40.054Z,2.77
2023-03-08T13:49:18.076Z,3.07
2023-03-08T13:51:50.965Z,2.87
2023-03-08T13:54:29.858Z,2.63
2023-03-08T13:56:59.104Z,3.20
2023-03-08T13:59:28.765Z,2.97
2023-03-08T14:01:57.598Z,3.10
2023-03-08T14:04:28.156Z,3.03
2023-03-08T14:06:58.085Z,3.50
2023-03-08T14:09:26.996Z,4.00
2023-03-08T14:12:00.818Z,3.13
2023-03-08T14:14:33.705Z,3.60
2023-03-08T14:17:06.261Z,3.07
2023-03-08T14:19:37.200Z,3.40
2023-03-08T14:22:13.350Z,3.40
2023-03-08T14:24:43.504Z,3.17
2023-03-08T14:27:32.985Z,3.53
2023-03-08T14:30:13.782Z,3.53
2023-03-08T14:33:06.248Z,4.47
2023-03-08T14:35:37.757Z,3.63
2023-03-08T14:38:14.883Z,3.90
2023-03-08T14:40:50.406Z,3.90
2023-03-08T14:43:20.848Z,2.97
2023-03-08T14:45:56.290Z,3.50
2023-03-08T14:48:26.624Z,3.77
2023-03-08T14:50:59.107Z,3.67
2023-03-08T14:53:32.114Z,3.67
2023-03-08T14:56:01.985Z,3.47
2023-03-08T14:58:34.995Z,2.97
2023-03-08T15:01:08.589Z,3.40
2023-03-08T15:03:37.053Z,2.90
2023-03-08T15:06:13.817Z,3.80
2023-03-08T15:08:43.104Z,3.47
2023-03-08T15:11:11.231Z,4.00
2023-03-08T15:13:40.148Z,3.90
2023-03-08T15:16:14.222Z,3.73
2023-03-08T15:18:44.110Z,4.50
2023-03-08T15:21:15.138Z,3.90
2023-03-08T15:23:48.929Z,4.40
2023-03-08T15:26:23.122Z,4.40
2023-03-08T15:28:54.279Z,4.10
2023-03-08T15:31:23.922Z,4.37
2023-03-08T15:33:52.198Z,4.00
2023-03-08T15:36:21.111Z,4.10
2023-03-08T15:38:49.561Z,4.57
2023-03-08T15:41:18.432Z,4.20
2023-03-08T15:43:47.117Z,3.97
2023-03-08T15:46:16.214Z,4.37
2023-03-08T15:48:46.572Z,4.10
2023-03-08T15:51:19.466Z,4.20
2023-03-08T15:53:54.211Z,4.50
2023-03-08T15:56:22.975Z,4.20
2023-03-08T15:58:51.095Z,4.33
2023-03-08T16:01:23.245Z,4.50
2023-03-08T16:03:55.811Z,4.40
2023-03-08T16:06:24.586Z,4.57
2023-03-08T16:08:52.859Z,4.30
2023-03-08T16:11:22.836Z,4.50
2023-03-08T16:13:52.577Z,4.40
2023-03-08T16:16:21.451Z,5.77
2023-03-08T16:18:49.707Z,8.03
2023-03-08T16:21:19.565Z,4.90
2023-03-08T16:23:47.910Z,4.53
2023-03-08T16:26:17.897Z,4.77
2023-03-08T16:28:47.707Z,5.60
2023-03-08T16:31:17.307Z,5.60
2023-03-08T16:33:45.664Z,6.07
2023-03-08T16:36:14.791Z,5.50
2023-03-08T16:38:44.458Z,5.60
2023-03-08T16:41:15.424Z,5.33
2023-03-08T16:43:48.548Z,5.00
2023-03-08T16:46:18.597Z,4.80
2023-03-08T16:48:54.387Z,5.20
2023-03-08T16:51:24.757Z,4.97
2023-03-08T16:53:54.877Z,5.73
2023-03-08T16:56:24.660Z,5.20
2023-03-08T16:58:52.859Z,5.73
2023-03-08T17:01:21.612Z,5.40
2023-03-08T17:03:49.869Z,4.73
2023-03-08T17:06:20.157Z,5.43
2023-03-08T17:08:49.333Z,5.33
2023-03-08T17:11:25.391Z,6.20
2023-03-08T17:13:55.523Z,5.27
2023-03-08T17:16:26.379Z,5.63
2023-03-08T17:18:57.299Z,6.33
2023-03-08T17:21:25.705Z,5.63
2023-03-08T17:23:54.022Z,5.97
2023-03-08T17:26:24.452Z,6.37
2023-03-08T17:28:53.592Z,5.93
2023-03-08T17:31:25.208Z,5.27
2023-03-08T17:33:53.492Z,5.47
2023-03-08T17:36:22.107Z,4.87
2023-03-08T17:38:53.389Z,4.93
2023-03-08T17:41:26.906Z,8.80
2023-03-08T17:43:55.234Z,5.47
2023-03-08T17:46:25.652Z,5.77
2023-03-08T17:48:55.906Z,6.33
2023-03-08T17:51:25.827Z,6.00
2023-03-08T17:53:54.500Z,6.10
2023-03-08T17:56:25.198Z,7.10
2023-03-08T17:58:59.543Z,6.67
2023-03-08T18:01:29.630Z,6.50
2023-03-08T18:03:59.185Z,6.73
2023-03-08T18:06:30.291Z,6.93
2023-03-08T18:08:59.702Z,7.00
2023-03-08T18:11:28.674Z,7.20
2023-03-08T18:13:58.181Z,7.13
2023-03-08T18:16:27.222Z,7.37
2023-03-08T18:18:55.457Z,6.37
2023-03-08T18:21:24.177Z,7.03
2023-03-08T18:23:55.033Z,7.53
2023-03-08T18:26:28.062Z,7.07
2023-03-08T18:28:58.176Z,6.93
2023-03-08T18:31:28.257Z,6.47
2023-03-08T18:33:58.010Z,8.97
2023-03-08T18:36:26.770Z,7.50
2023-03-08T18:38:55.167Z,7.87
2023-03-08T18:41:25.691Z,7.30
2023-03-08T18:43:55.459Z,8.10
2023-03-08T18:46:29.367Z,7.37
2023-03-08T18:48:58.890Z,7.43
2023-03-08T18:51:27.239Z,7.77
2023-03-08T18:54:02.232Z,7.10
2023-03-08T18:56:31.119Z,7.20
2023-03-08T18:59:02.844Z,7.30
2023-03-08T19:01:33.259Z,7.27
2023-03-08T19:04:06.268Z,7.50
2023-03-08T19:06:35.016Z,7.70
2023-03-08T19:09:09.094Z,10.57
2023-03-08T19:11:38.544Z,11.37
2023-03-08T19:14:06.777Z,13.87
2023-03-08T19:16:37.123Z,16.53
2023-03-08T19:19:08.894Z,14.87
2023-03-08T19:21:42.363Z,10.40
2023-03-08T19:24:12.675Z,8.50
2023-03-08T19:26:43.136Z,8.30
2023-03-08T19:29:15.137Z,8.40
2023-03-08T19:31:46.504Z,10.57
2023-03-08T19:34:15.198Z,9.57
2023-03-08T19:36:44.378Z,9.77
2023-03-08T19:39:19.994Z,8.57
2023-03-08T19:41:50.084Z,7.87
2023-03-08T19:44:18.458Z,8.37
2023-03-08T19:46:48.393Z,8.47
2023-03-08T19:49:21.861Z,8.33
2023-03-08T19:51:51.075Z,9.07
2023-03-08T19:54:19.603Z,8.67
2023-03-08T19:56:48.364Z,8.83
2023-03-08T19:59:16.926Z,8.33
2023-03-08T20:01:46.171Z,9.23
2023-03-08T20:04:15.794Z,9.70
2023-03-08T20:06:46.588Z,9.37
2023-03-08T20:09:18.375Z,10.53
2023-03-08T20:11:46.522Z,10.23
2023-03-08T20:14:14.806Z,10.50
2023-03-08T20:16:42.955Z,10.00
2023-03-08T20:19:12.224Z,9.40
2023-03-08T20:21:41.825Z,8.70
2023-03-08T20:24:10.287Z,9.23
2023-03-08T20:26:41.880Z,8.40
2023-03-08T20:29:11.204Z,9.07
2023-03-08T20:31:39.415Z,8.70
2023-03-08T20:34:07.635Z,11.00
2023-03-08T20:36:35.777Z,10.00
2023-03-08T20:39:10.267Z,9.43
2023-03-08T20:41:38.458Z,9.63
2023-03-08T20:44:06.668Z,9.40
2023-03-08T20:46:34.979Z,10.40
2023-03-08T20:49:03.379Z,37.50
2023-03-08T20:51:31.532Z,10.13
2023-03-08T20:53:59.712Z,9.97
2023-03-08T20:56:29.310Z,9.13
2023-03-08T20:59:01.248Z,10.27
2023-03-08T21:01:32.327Z,9.07
2023-03-08T21:04:05.590Z,9.00
2023-03-08T21:06:33.971Z,8.77
2023-03-08T21:09:03.138Z,8.87
2023-03-08T21:11:32.793Z,9.40
2023-03-08T21:14:00.934Z,8.97
2023-03-08T21:16:32.979Z,9.90
2023-03-08T21:19:02.648Z,9.60
2023-03-08T21:21:34.166Z,9.83
2023-03-08T21:24:04.750Z,9.83
2023-03-08T21:26:35.242Z,9.53
2023-03-08T21:29:06.053Z,10.37
2023-03-08T21:31:40.390Z,9.73
2023-03-08T21:34:14.226Z,10.53
2023-03-08T21:36:42.754Z,10.60
2023-03-08T21:39:11.896Z,11.03
2023-03-08T21:41:44.233Z,11.20
2023-03-08T21:44:15.248Z,32.03
2023-03-08T21:46:43.711Z,30.73
2023-03-08T21:49:21.555Z,13.90
2023-03-08T21:51:50.442Z,11.93
2023-03-08T21:54:19.154Z,13.57
2023-03-08T21:56:53.184Z,14.53
2023-03-08T21:59:24.256Z,16.40
2023-03-08T22:01:54.122Z,16.93
2023-03-08T22:04:22.894Z,16.53
2023-03-08T22:06:52.475Z,16.60
2023-03-08T22:09:20.623Z,18.07
2023-03-08T22:11:49.233Z,19.37
2023-03-08T22:14:18.873Z,18.43
2023-03-08T22:16:47.012Z,18.60
2023-03-08T22:19:15.175Z,17.97
2023-03-08T22:21:49.545Z,16.60
2023-03-08T22:24:18.258Z,16.17
2023-03-08T22:26:46.436Z,16.17
2023-03-08T22:29:16.293Z,16.00
2023-03-08T22:31:45.877Z,25.13
2023-03-08T22:34:14.004Z,32.67
2023-03-08T22:36:44.307Z,18.30
2023-03-08T22:39:13.169Z,16.57
2023-03-08T22:41:41.369Z,17.77
2023-03-08T22:44:13.454Z,18.27
2023-03-08T22:46:47.260Z,19.10
2023-03-08T22:49:17.178Z,18.03
2023-03-08T22:51:45.474Z,17.60
2023-03-08T22:54:17.286Z,16.77
2023-03-08T22:56:46.221Z,15.80
2023-03-08T22:59:15.243Z,17.13
2023-03-08T23:01:43.424Z,17.80
2023-03-08T23:04:14.609Z,17.63
2023-03-08T23:06:42.794Z,17.83
2023-03-08T23:09:13.274Z,17.83
2023-03-08T23:11:43.256Z,19.20
2023-03-08T23:14:12.744Z,20.20
2023-03-08T23:16:43.397Z,26.27
2023-03-08T23:19:16.380Z,36.97
2023-03-08T23:21:45.736Z,23.07
2023-03-08T23:24:14.499Z,21.30
2023-03-08T23:26:48.415Z,23.17
2023-03-08T23:29:17.313Z,22.67
2023-03-08T23:31:47.159Z,23.20
2023-03-08T23:34:17.359Z,23.03
2023-03-08T23:36:45.844Z,23.37
2023-03-08T23:39:14.364Z,22.93
2023-03-08T23:41:45.049Z,22.30
2023-03-08T23:44:13.593Z,23.03
2023-03-08T23:46:46.392Z,21.53
2023-03-08T23:49:17.092Z,21.23
2023-03-08T23:51:45.421Z,20.97
2023-03-08T23:54:15.149Z,20.03
2023-03-08T23:56:45.330Z,20.77
2023-03-08T23:59:18.203Z,20.23
